Time;durP1;ratioP1;P1;durP2;ratioP2;P2;SDS_P1;SDS_P2;PMS_P1;PMS_P2;Temp;Humidity;BMP_temperature;BMP_pressure;BME280_temperature;BME280_humidity;BME280_pressure;Samples;Min_cycle;Max_cycle;Signal;HPM_P1;HPM_P2
2022/05/13 00:01:42;;;;;;;8.85;1.73;;;;;;;19.81;46.85;100838.00;5066567;28;20094;-88
2022/05/13 00:04:15;;;;;;;10.23;2.30;;;;;;;19.78;46.80;100836.59;5050159;28;20044;-85
2022/05/13 00:06:42;;;;;;;8.25;2.15;;;;;;;19.87;46.23;100832.59;5065361;28;20483;-85
2022/05/13 00:09:16;;;;;;;5.40;2.25;;;;;;;19.82;46.25;100836.97;5068278;28;20040;-86
2022/05/13 00:11:42;;;;;;;9.35;2.03;;;;;;;19.72;47.44;100821.28;5066829;28;20032;-86
2022/05/13 00:14:13;;;;;;;9.77;2.00;;;;;;;19.60;48.01;100829.22;5049409;28;20132;-84
2022/05/13 00:16:39;;;;;;;8.77;2.03;;;;;;;18.93;50.32;100828.75;5050524;28;20037;-84
2022/05/13 00:21:55;;;;;;;5.65;1.80;;;;;;;18.82;50.68;100829.38;5026673;28;20060;-82
2022/05/13 00:24:21;;;;;;;6.55;2.05;;;;;;;18.54;52.02;100821.53;5011126;28;20042;-83
2022/05/13 00:26:47;;;;;;;6.95;2.22;;;;;;;18.34;52.13;100820.69;5027553;28;20137;-83
2022/05/13 00:29:12;;;;;;;9.10;2.10;;;;;;;18.38;51.73;100832.66;5019832;28;20077;-85
2022/05/13 00:31:38;;;;;;;5.68;2.10;;;;;;;18.35;51.96;100828.53;5038140;28;20034;-83
2022/05/13 00:34:13;;;;;;;6.35;2.22;;;;;;;18.32;52.32;100828.13;5026992;28;20397;-86
2022/05/13 00:36:40;;;;;;;6.90;2.33;;;;;;;18.34;52.68;100836.78;5028225;28;20038;-83
2022/05/13 00:39:06;;;;;;;8.07;2.33;;;;;;;18.13;54.20;100832.41;4991564;28;20497;-83
2022/05/13 00:41:34;;;;;;;6.45;1.80;;;;;;;17.79;54.90;100829.84;5025717;28;20042;-85
2022/05/13 00:44:00;;;;;;;8.57;2.20;;;;;;;17.71;55.29;100825.50;5008225;28;20034;-86
2022/05/13 00:46:28;;;;;;;6.97;1.75;;;;;;;17.87;55.14;100825.13;5027151;28;20044;-83
2022/05/13 00:48:55;;;;;;;5.63;1.75;;;;;;;18.01;54.62;100826.81;5007239;28;20100;-84
2022/05/13 00:51:29;;;;;;;6.55;1.92;;;;;;;18.16;54.74;100833.88;5023021;28;20042;-85
2022/05/13 00:54:05;;;;;;;7.20;1.85;;;;;;;17.93;55.60;100829.69;5006690;28;20054;-84
2022/05/13 00:56:30;;;;;;;8.55;2.22;;;;;;;17.80;55.84;100824.28;5025978;28;20056;-85
2022/05/13 00:59:12;;;;;;;5.28;1.70;;;;;;;17.69;56.48;100827.56;5025785;28;20018;-84
2022/05/13 01:01:38;;;;;;;9.43;2.80;;;;;;;17.71;55.52;100825.50;5029253;28;20551;-83
2022/05/13 01:04:12;;;;;;;5.43;1.90;;;;;;;17.71;54.48;100824.66;5035991;28;20042;-83
2022/05/13 01:06:42;;;;;;;11.55;2.50;;;;;;;17.75;53.50;100816.03;5035529;28;20057;-84
2022/05/13 01:09:11;;;;;;;11.18;1.88;;;;;;;17.75;53.49;100818.72;5037832;28;20037;-85
2022/05/13 01:11:39;;;;;;;8.82;1.77;;;;;;;17.73;53.50;100820.75;5036811;28;20034;-87
2022/05/13 01:14:14;;;;;;;8.70;2.75;;;;;;;17.76;54.02;100823.06;5013696;28;20026;-82
2022/05/13 01:19:28;;;;;;;6.45;1.98;;;;;;;17.31;56.74;100813.75;5034287;28;20097;-83
2022/05/13 01:21:54;;;;;;;5.25;1.80;;;;;;;17.31;56.57;100812.91;5033105;28;20034;-85
2022/05/13 01:24:24;;;;;;;6.53;1.73;;;;;;;17.44;56.58;100816.50;4996809;28;20059;-81
2022/05/13 01:26:50;;;;;;;7.03;1.85;;;;;;;17.39;57.15;100813.59;5035250;28;20053;-82
2022/05/13 01:29:15;;;;;;;7.50;2.00;;;;;;;17.20;58.42;100810.81;4992194;28;20046;-84
2022/05/13 01:31:49;;;;;;;3.70;1.63;;;;;;;17.42;56.81;100807.84;5024136;28;20038;-83
2022/05/13 01:34:21;;;;;;;7.20;1.63;;;;;;;17.39;57.19;100810.09;5037748;23;20046;-84
2022/05/13 01:36:47;;;;;;;5.88;1.80;;;;;;;17.28;57.29;100803.44;5067537;28;20037;-83
2022/05/13 01:39:15;;;;;;;4.68;1.88;;;;;;;17.31;56.95;100802.19;5066242;28;20128;-86
2022/05/13 01:41:49;;;;;;;7.82;2.00;;;;;;;17.29;56.86;100799.75;5047933;28;20092;-82
2022/05/13 01:44:15;;;;;;;7.15;2.13;;;;;;;17.17;57.41;100795.16;5059091;28;20052;-81
2022/05/13 01:46:41;;;;;;;3.72;1.60;;;;;;;17.18;57.91;100797.63;5065179;28;20080;-82
2022/05/13 01:49:07;;;;;;;4.50;1.63;;;;;;;17.22;57.67;100790.00;5046930;28;20033;-86
2022/05/13 01:51:32;;;;;;;4.47;1.70;;;;;;;17.37;57.58;100793.38;5063746;28;20037;-84
2022/05/13 01:54:01;;;;;;;6.63;1.80;;;;;;;17.27;58.77;100799.09;5061905;28;20033;-86
2022/05/13 01:56:26;;;;;;;6.40;2.00;;;;;;;17.19;58.93;100803.81;5064625;28;20031;-85
2022/05/13 01:58:52;;;;;;;7.70;1.63;;;;;;;17.24;58.82;100798.66;5068973;28;20032;-84
2022/05/13 02:01:29;;;;;;;5.22;2.17;;;;;;;16.97;60.35;100806.56;5068495;28;20041;-83
2022/05/13 02:04:02;;;;;;;6.22;2.03;;;;;;;16.98;60.35;100802.84;5066000;28;20044;-86
2022/05/13 02:06:28;;;;;;;5.50;1.80;;;;;;;17.10;59.65;100802.31;5063134;28;20124;-85
2022/05/13 02:08:57;;;;;;;8.63;2.20;;;;;;;17.22;59.20;100801.56;5063942;28;20040;-87
2022/05/13 02:11:26;;;;;;;9.65;1.77;;;;;;;17.25;58.24;100803.00;5067824;28;20037;-85
2022/05/13 02:13:55;;;;;;;12.18;1.83;;;;;;;17.11;57.50;100807.47;5048393;28;20495;-86
2022/05/13 02:16:21;;;;;;;5.75;1.90;;;;;;;16.99;58.05;100809.03;5049915;28;20369;-86
2022/05/13 02:18:49;;;;;;;6.40;1.90;;;;;;;17.09;57.85;100803.31;5066381;28;20063;-83
2022/05/13 02:21:17;;;;;;;5.45;1.63;;;;;;;17.08;58.73;100801.66;5138017;22;20033;-84
2022/05/13 02:23:46;;;;;;;4.35;1.70;;;;;;;16.91;59.82;100804.66;5028321;28;20125;-84
2022/05/13 02:26:13;;;;;;;6.40;1.92;;;;;;;17.08;58.94;100801.66;5046732;28;20033;-83
2022/05/13 02:28:40;;;;;;;5.35;1.88;;;;;;;17.19;58.45;100809.16;5050292;28;20037;-84
2022/05/13 02:31:06;;;;;;;7.60;2.08;;;;;;;17.39;57.66;100802.03;5025916;28;20052;-84
2022/05/13 02:33:47;;;;;;;4.10;1.80;;;;;;;17.36;58.42;100802.44;5048138;28;20030;-83
2022/05/13 02:36:16;;;;;;;9.35;1.88;;;;;;;17.15;58.69;100799.84;5047438;28;20025;-85
2022/05/13 02:39:17;;;;;;;8.25;2.00;;;;;;;17.22;58.62;100803.41;5039711;23;20123;-86
2022/05/13 02:41:44;;;;;;;7.82;1.95;;;;;;;17.32;57.67;100793.16;5004311;28;20050;-84
2022/05/13 02:44:13;;;;;;;5.65;2.00;;;;;;;17.32;58.21;100796.66;5004719;28;20034;-85
2022/05/13 02:46:41;;;;;;;8.68;1.88;;;;;;;17.24;58.75;100787.94;5003032;28;20050;-85
2022/05/13 02:49:07;;;;;;;5.00;1.67;;;;;;;17.05;59.61;100793.00;4989996;28;20037;-83
2022/05/13 02:51:49;;;;;;;4.28;1.65;;;;;;;16.95;60.04;100781.84;5050771;28;20072;-86
2022/05/13 02:54:18;;;;;;;6.40;2.05;;;;;;;16.47;60.84;100785.38;5048125;28;20388;-86
2022/05/13 02:56:48;;;;;;;5.95;1.90;;;;;;;16.51;61.06;100789.31;5048046;28;20119;-83
2022/05/13 02:59:13;;;;;;;8.55;1.90;;;;;;;16.52;61.42;100790.97;5045184;28;20037;-84
2022/05/13 03:01:45;;;;;;;9.73;1.95;;;;;;;16.64;60.53;100789.44;5047835;28;20041;-85
2022/05/13 03:04:17;;;;;;;4.87;1.77;;;;;;;16.43;61.44;100786.78;5064664;28;20028;-86
2022/05/13 03:06:42;;;;;;;8.83;2.37;;;;;;;16.17;62.92;100786.56;5046364;28;20041;-84
2022/05/13 03:09:11;;;;;;;12.77;2.03;;;;;;;16.41;62.34;100783.47;5066357;28;20035;-85
2022/05/13 03:11:40;;;;;;;4.25;1.58;;;;;;;16.26;63.13;100780.06;5065840;28;20474;-85
2022/05/13 03:14:06;;;;;;;4.88;1.40;;;;;;;16.13;64.51;100783.44;5036614;23;20037;-87
2022/05/13 03:16:32;;;;;;;5.95;1.42;;;;;;;16.11;64.91;100790.00;5046567;28;20047;-83
2022/05/13 03:18:59;;;;;;;8.43;2.05;;;;;;;16.09;65.30;100794.69;5048214;28;20365;-84
2022/05/13 03:21:26;;;;;;;8.27;1.92;;;;;;;15.94;65.95;100784.88;5062354;28;20033;-84
2022/05/13 03:23:52;;;;;;;7.10;1.83;;;;;;;16.18;64.50;100788.19;5046753;28;20025;-84
2022/05/13 03:26:25;;;;;;;9.77;2.00;;;;;;;16.21;64.91;100785.13;5065947;28;20048;-83
2022/05/13 03:28:51;;;;;;;7.28;1.85;;;;;;;16.37;64.58;100788.38;5048781;28;20037;-84
2022/05/13 03:31:19;;;;;;;4.32;1.92;;;;;;;16.36;65.17;100792.09;5065748;28;20488;-82
2022/05/13 03:33:50;;;;;;;7.43;1.95;;;;;;;16.48;64.05;100789.69;5065494;28;20041;-84
2022/05/13 03:36:19;;;;;;;5.05;2.13;;;;;;;16.22;64.92;100784.13;5067446;28;20037;-84
2022/05/13 03:38:47;;;;;;;6.70;2.10;;;;;;;16.17;64.66;100786.56;5065474;28;20033;-86
2022/05/13 03:41:13;;;;;;;13.10;2.25;;;;;;;16.07;65.45;100781.53;5046694;28;20045;-85
2022/05/13 03:43:46;;;;;;;6.22;2.22;;;;;;;16.15;65.34;100780.56;5064288;28;20037;-84
2022/05/13 03:46:15;;;;;;;10.85;2.47;;;;;;;16.29;65.04;100777.81;5049676;28;20040;-83
2022/05/13 03:48:44;;;;;;;6.28;1.90;;;;;;;16.40;65.07;100781.81;5068810;28;20025;-84
2022/05/13 03:51:13;;;;;;;4.03;1.83;;;;;;;16.55;64.46;100787.94;5077501;28;20048;-82
2022/05/13 03:54:06;;;;;;;10.25;2.28;;;;;;;16.50;65.10;100790.34;5068146;28;20114;-84
2022/05/13 03:56:32;;;;;;;8.00;2.10;;;;;;;16.68;64.13;100777.31;5065370;28;20040;-84
2022/05/13 03:58:58;;;;;;;15.30;2.90;;;;;;;16.70;63.84;100793.19;5066109;28;20029;-84
2022/05/13 04:01:24;;;;;;;8.40;2.05;;;;;;;16.58;64.94;100790.22;5047262;28;20051;-85
2022/05/13 04:03:50;;;;;;;6.82;1.98;;;;;;;16.26;66.40;100785.41;5033390;28;20061;-83
2022/05/13 04:09:07;;;;;;;8.13;2.17;;;;;;;16.09;67.09;100795.53;5047834;28;20056;-83
2022/05/13 04:11:37;;;;;;;14.43;2.60;;;;;;;16.30;65.83;100789.34;5043792;28;20132;-84
2022/05/13 04:16:52;;;;;;;8.75;2.63;;;;;;;16.40;65.88;100795.19;5064710;28;20036;-84
2022/05/13 04:19:24;;;;;;;6.93;2.60;;;;;;;16.15;67.55;100799.28;5056046;28;20052;-84
2022/05/13 04:21:49;;;;;;;5.47;2.40;;;;;;;16.16;68.05;100803.63;5063643;28;20044;-83
2022/05/13 04:24:20;;;;;;;7.68;2.63;;;;;;;16.18;67.67;100804.25;5064200;28;20028;-82
2022/05/13 04:26:48;;;;;;;6.75;2.80;;;;;;;16.04;68.46;100804.13;5044339;28;20048;-82
2022/05/13 04:29:16;;;;;;;7.53;2.60;;;;;;;16.00;69.65;100799.34;5062948;28;20068;-85
2022/05/13 04:31:51;;;;;;;13.05;2.80;;;;;;;16.21;68.96;100795.84;5042932;28;20068;-82
2022/05/13 04:34:17;;;;;;;13.15;3.25;;;;;;;16.08;69.69;100809.06;5041959;28;20070;-85
2022/05/13 04:36:43;;;;;;;11.57;3.25;;;;;;;16.15;69.29;100809.97;5041408;28;20030;-84
2022/05/13 04:39:14;;;;;;;6.40;2.47;;;;;;;16.15;69.39;100820.66;5023449;28;20030;-84
2022/05/13 04:44:46;;;;;;;16.85;3.38;;;;;;;16.63;67.60;100822.59;5045102;28;20045;-84
2022/05/13 04:50:09;;;;;;;18.70;3.47;;;;;;;16.18;70.27;100825.63;5044176;28;20079;-85
2022/05/13 04:52:34;;;;;;;12.05;4.00;;;;;;;16.21;70.85;100823.41;5009041;28;20029;-84
2022/05/13 04:55:00;;;;;;;12.63;3.72;;;;;;;16.21;71.12;100823.41;5025514;28;20065;-83
2022/05/13 04:57:33;;;;;;;14.52;4.20;;;;;;;16.31;70.54;100825.75;5027806;28;20392;-84
2022/05/13 04:59:58;;;;;;;10.52;3.92;;;;;;;16.63;69.34;100830.63;5044082;28;20081;-84
2022/05/13 05:02:28;;;;;;;17.10;4.28;;;;;;;16.67;69.31;100826.50;5046266;28;20038;-84
2022/05/13 05:05:12;;;;;;;21.02;4.22;;;;;;;16.23;72.77;100828.56;5050233;28;20049;-83
2022/05/13 05:07:43;;;;;;;19.95;3.83;;;;;;;16.21;72.98;100835.94;5045759;23;20055;-84
2022/05/13 05:10:10;;;;;;;14.32;3.70;;;;;;;16.16;74.52;100833.88;5074260;28;20037;-86
2022/05/13 05:12:42;;;;;;;14.75;4.22;;;;;;;16.16;74.55;100833.03;5074884;23;20049;-86
2022/05/13 05:15:11;;;;;;;19.15;4.00;;;;;;;16.31;74.33;100833.78;5064071;23;20060;-87
2022/05/13 05:17:36;;;;;;;17.20;3.78;;;;;;;16.48;73.90;100832.50;5047282;28;20040;-83
2022/05/13 05:20:06;;;;;;;17.83;3.97;;;;;;;16.64;73.66;100834.94;5070595;28;20029;-83
2022/05/13 05:22:34;;;;;;;12.00;4.32;;;;;;;16.85;72.96;100840.25;5077927;28;20026;-84
2022/05/13 05:25:04;;;;;;;14.38;3.97;;;;;;;17.27;71.33;100849.16;5060978;28;20323;-85
2022/05/13 05:27:29;;;;;;;10.88;3.90;;;;;;;17.48;70.55;100843.72;5060506;28;20029;-85
2022/05/13 05:29:55;;;;;;;14.48;3.78;;;;;;;17.74;69.27;100854.59;5058941;28;20040;-87
2022/05/13 05:32:23;;;;;;;21.30;4.28;;;;;;;17.79;69.69;100854.81;5076221;28;20052;-87
2022/05/13 05:34:49;;;;;;;18.30;4.65;;;;;;;18.18;67.79;100853.25;5069719;28;20056;-86
2022/05/13 05:37:26;;;;;;;19.33;4.05;;;;;;;18.57;66.52;100847.97;5061400;28;20143;-88
2022/05/13 05:39:59;;;;;;;15.00;4.07;;;;;;;18.90;65.71;100851.47;5026361;28;20034;-88
2022/05/13 05:42:26;;;;;;;20.95;4.45;;;;;;;19.09;64.90;100864.06;5046604;28;20033;-86
2022/05/13 05:44:54;;;;;;;12.25;4.20;;;;;;;19.48;62.93;100859.66;5044223;28;20508;-88
2022/05/13 05:47:31;;;;;;;30.23;5.45;;;;;;;19.70;62.37;100865.56;5041263;28;20112;-85
2022/05/13 05:50:06;;;;;;;23.13;4.70;;;;;;;19.49;63.05;100869.34;5020186;28;20041;-85
2022/05/13 05:52:31;;;;;;;26.15;5.15;;;;;;;19.72;63.18;100868.88;5042974;28;20052;-85
2022/05/13 05:58:00;;;;;;;19.48;5.03;;;;;;;20.65;58.71;100884.28;5042847;28;20037;-86
2022/05/13 06:00:27;;;;;;;27.33;4.68;;;;;;;20.64;59.33;100879.97;5025705;28;20046;-84
2022/05/13 06:02:53;;;;;;;22.67;4.78;;;;;;;21.03;58.27;100879.63;5023967;28;20108;-84
2022/05/13 06:05:19;;;;;;;25.30;6.00;;;;;;;21.20;57.21;100889.88;5042834;28;20052;-89
2022/05/13 06:07:46;;;;;;;16.23;4.68;;;;;;;21.07;57.34;100883.53;5042299;28;20033;-88
2022/05/13 06:10:13;;;;;;;16.77;5.07;;;;;;;21.46;55.94;100894.97;5027640;28;20039;-89
2022/05/13 06:12:41;;;;;;;22.15;5.30;;;;;;;21.61;55.84;100892.72;5042846;28;20102;-86
2022/05/13 06:15:11;;;;;;;16.00;4.60;;;;;;;21.99;54.40;100901.44;5035818;28;20060;-86
2022/05/13 06:17:43;;;;;;;14.77;4.50;;;;;;;22.70;53.07;100907.94;5027388;23;20068;-88
2022/05/13 06:20:26;;;;;;;16.55;5.07;;;;;;;22.78;51.38;100905.69;5022133;28;20037;-84
2022/05/13 06:22:54;;;;;;;16.83;5.80;;;;;;;22.94;51.49;100898.78;5023699;28;20049;-85
2022/05/13 06:25:21;;;;;;;13.65;4.85;;;;;;;23.24;51.03;100898.66;5044703;28;20035;-89
2022/05/13 06:31:09;;;;;;;16.70;4.95;;;;;;;23.14;52.19;100899.25;5055466;28;20045;-87
2022/05/13 06:33:53;;;;;;;13.82;4.80;;;;;;;23.27;52.25;100903.63;5046011;28;20033;-86
2022/05/13 06:36:19;;;;;;;14.40;4.82;;;;;;;23.65;51.53;100912.91;5037219;28;20048;-87
2022/05/13 06:38:47;;;;;;;15.07;5.13;;;;;;;23.20;51.98;100902.94;5023067;28;20105;-87
2022/05/13 06:41:13;;;;;;;11.70;4.78;;;;;;;23.16;52.67;100903.41;5041092;28;20088;-89
2022/05/13 06:43:39;;;;;;;15.38;4.75;;;;;;;23.38;51.36;100906.31;5043613;28;20507;-87
2022/05/13 06:46:05;;;;;;;12.18;4.93;;;;;;;23.16;52.64;100903.41;5042211;28;20037;-86
2022/05/13 06:48:30;;;;;;;9.82;5.10;;;;;;;23.72;51.21;100907.34;5027108;28;20538;-86
2022/05/13 06:53:44;;;;;;;12.07;4.68;;;;;;;23.98;50.82;100909.53;4815827;26;20036;-88
2022/05/13 06:56:15;;;;;;;9.03;5.23;;;;;;;24.25;49.83;100917.94;5045256;28;20104;-86
2022/05/13 06:58:41;;;;;;;13.65;4.95;;;;;;;24.00;49.89;100918.22;5061941;28;20311;-89
2022/05/13 07:01:06;;;;;;;15.10;5.50;;;;;;;23.67;51.24;100915.34;5044552;28;20064;-87
2022/05/13 07:03:35;;;;;;;16.02;5.43;;;;;;;23.82;51.62;100915.69;5060749;28;20087;-82
2022/05/13 07:06:01;;;;;;;12.05;5.10;;;;;;;24.38;51.01;100922.22;5042900;28;20132;-86
2022/05/13 07:08:30;;;;;;;15.50;5.20;;;;;;;24.77;49.11;100910.44;5062150;28;20053;-85
2022/05/13 07:10:57;;;;;;;17.83;5.15;;;;;;;24.57;49.72;100916.34;5063480;28;20116;-87
2022/05/13 07:13:25;;;;;;;10.95;4.93;;;;;;;24.48;49.47;100923.25;5061818;28;20041;-84
2022/05/13 07:15:54;;;;;;;12.82;4.88;;;;;;;24.34;49.68;100915.63;5064646;28;20036;-88
2022/05/13 07:18:19;;;;;;;12.93;5.03;;;;;;;24.87;48.50;100915.25;5065599;28;20059;-85
2022/05/13 07:20:45;;;;;;;12.55;5.03;;;;;;;24.71;48.86;100919.56;5066508;28;20485;-86
2022/05/13 07:23:16;;;;;;;14.98;5.32;;;;;;;24.86;48.50;100913.63;5066570;28;20040;-86
2022/05/13 07:25:43;;;;;;;11.73;5.30;;;;;;;25.00;47.32;100910.31;5065691;28;20036;-86
2022/05/13 07:28:11;;;;;;;17.98;5.78;;;;;;;24.67;48.32;100910.28;5066686;28;20036;-84
2022/05/13 07:30:43;;;;;;;13.83;5.33;;;;;;;25.06;47.56;100909.31;5048931;28;20395;-87
2022/05/13 07:33:14;;;;;;;17.40;5.87;;;;;;;24.95;47.77;100912.97;5065658;28;20037;-86
2022/05/13 07:35:43;;;;;;;14.82;5.90;;;;;;;25.02;47.15;100904.66;5047650;28;20087;-86
2022/05/13 07:38:11;;;;;;;18.63;5.95;;;;;;;25.55;46.88;100909.53;5064201;28;20054;-87
2022/05/13 07:43:40;;;;;;;12.93;5.82;;;;;;;26.06;45.18;100919.09;5062795;28;20039;-85
2022/05/13 07:46:15;;;;;;;11.32;5.85;;;;;;;26.20;43.41;100914.97;5047613;28;20055;-82
2022/05/13 07:48:41;;;;;;;18.55;5.68;;;;;;;26.05;44.13;100907.41;5050456;28;20041;-88
2022/05/13 07:51:15;;;;;;;12.30;5.00;;;;;;;26.56;43.13;100907.97;5075211;28;20032;-86
2022/05/13 07:53:41;;;;;;;11.30;5.63;;;;;;;25.69;45.36;100902.63;5076687;28;20113;-88
2022/05/13 07:56:11;;;;;;;15.38;6.80;;;;;;;26.16;44.59;100909.22;5045983;28;20076;-90
2022/05/13 07:58:45;;;;;;;12.85;6.43;;;;;;;26.09;43.40;100903.13;5061969;28;20048;-88
2022/05/13 08:01:17;;;;;;;10.33;6.37;;;;;;;26.36;43.17;100907.78;5066906;23;20045;-88
2022/05/13 08:03:44;;;;;;;14.48;5.70;;;;;;;26.22;43.17;100901.94;5049824;28;20288;-87
2022/05/13 08:06:13;;;;;;;10.95;6.15;;;;;;;26.47;43.80;100898.66;5036544;28;20044;-85
2022/05/13 08:08:46;;;;;;;16.33;6.72;;;;;;;26.80;43.63;100898.41;5021301;28;20046;-88
2022/05/13 08:11:17;;;;;;;18.27;6.15;;;;;;;27.63;41.85;100902.25;5034253;28;20068;-88
2022/05/13 08:16:45;;;;;;;16.67;6.20;;;;;;;27.50;41.60;100908.19;3313184;22;20113;-88
2022/05/13 08:19:33;;;;;;;19.13;7.03;;;;;;;27.21;42.80;100905.00;5043781;28;20046;-87
2022/05/13 08:22:11;;;;;;;13.90;5.53;;;;;;;27.48;42.81;100899.44;5051164;23;20049;-86
2022/05/13 08:24:59;;;;;;;12.68;6.10;;;;;;;27.78;41.18;100902.31;5053847;28;20032;-86
2022/05/13 08:27:40;;;;;;;12.05;5.03;;;;;;;28.43;38.64;100903.63;5068404;28;20048;-89
2022/05/13 08:30:19;;;;;;;15.18;6.05;;;;;;;28.11;39.27;100899.19;5069735;28;20033;-88
2022/05/13 08:32:57;;;;;;;12.98;4.90;;;;;;;28.45;38.09;100904.16;5064328;28;20061;-90
2022/05/13 08:35:28;;;;;;;17.35;5.55;;;;;;;28.23;40.01;100896.22;5062772;28;20032;-93
2022/05/13 08:38:03;;;;;;;14.45;5.63;;;;;;;28.43;39.67;100900.91;5057744;28;20109;-90
2022/05/13 08:41:14;;;;;;;13.55;5.68;;;;;;;28.18;39.90;100898.94;5056567;28;20037;-89
2022/05/13 08:43:52;;;;;;;16.55;5.88;;;;;;;28.48;38.53;100892.72;5066582;28;20032;-86
2022/05/13 08:46:45;;;;;;;19.35;4.75;;;;;;;28.44;37.33;100891.66;5063475;28;20055;-86
2022/05/13 08:49:36;;;;;;;13.82;4.88;;;;;;;28.66;37.81;100889.50;5048645;28;20045;-89
2022/05/13 08:56:04;;;;;;;11.57;4.72;;;;;;;28.44;36.08;100883.47;5066912;28;20080;-92
2022/05/13 08:58:37;;;;;;;12.43;3.93;;;;;;;28.69;36.36;100886.22;5057599;23;20049;-92
2022/05/13 09:01:09;;;;;;;13.02;3.97;;;;;;;29.37;34.42;100883.94;5074184;23;20045;-89
2022/05/13 09:03:40;;;;;;;11.00;4.35;;;;;;;29.11;34.26;100881.25;5048472;28;20041;-88
2022/05/13 09:06:46;;;;;;;15.20;4.68;;;;;;;29.39;35.85;100879.03;5065152;28;20041;-87
2022/05/13 09:09:24;;;;;;;16.10;4.57;;;;;;;29.59;36.08;100889.91;5050621;28;20045;-86
2022/05/13 09:11:55;;;;;;;16.20;4.88;;;;;;;29.33;36.26;100881.00;5042498;28;20125;-89
2022/05/13 09:14:27;;;;;;;18.73;4.90;;;;;;;29.81;34.48;100876.69;5053848;28;20083;-84
2022/05/13 09:17:23;;;;;;;15.57;5.05;;;;;;;29.42;35.95;100881.22;5053615;28;20037;-88
2022/05/13 09:19:55;;;;;;;12.73;4.70;;;;;;;29.49;35.49;100865.34;5040948;28;20082;-85
2022/05/13 09:22:20;;;;;;;17.52;4.68;;;;;;;29.09;35.95;100861.63;5063110;28;20056;-85
2022/05/13 09:24:55;;;;;;;21.38;4.80;;;;;;;29.11;36.19;100870.34;5041873;28;20033;-85
2022/05/13 09:27:21;;;;;;;12.65;4.85;;;;;;;28.44;37.32;100872.56;5026369;28;20452;-88
2022/05/13 09:29:47;;;;;;;15.48;4.35;;;;;;;29.00;36.75;100863.25;5052331;28;20049;-84
2022/05/13 09:32:23;;;;;;;10.27;3.90;;;;;;;28.93;36.12;100862.75;5040015;28;20091;-86
2022/05/13 09:35:26;;;;;;;10.13;3.30;;;;;;;29.15;34.69;100859.69;5044709;28;20484;-84
2022/05/13 09:37:52;;;;;;;10.60;3.00;;;;;;;29.14;34.55;100858.88;5061492;28;20439;-85
2022/05/13 09:40:38;;;;;;;13.10;3.70;;;;;;;29.73;34.75;100860.91;5042679;28;20037;-88
2022/05/13 09:43:05;;;;;;;17.00;4.20;;;;;;;29.39;35.22;100854.47;5060504;28;20537;-87
2022/05/13 09:45:35;;;;;;;12.93;3.47;;;;;;;29.79;33.79;100861.69;5058336;28;20041;-90
2022/05/13 09:48:08;;;;;;;11.10;3.50;;;;;;;30.11;33.11;100857.41;5024464;28;20039;-87
2022/05/13 09:51:00;;;;;;;8.32;2.90;;;;;;;30.58;31.76;100850.53;5023363;28;20096;-87
2022/05/13 09:53:32;;;;;;;8.48;3.45;;;;;;;30.95;31.96;100849.94;5026668;28;20037;-88
2022/05/13 09:56:01;;;;;;;9.70;3.58;;;;;;;29.74;33.66;100840.66;5038575;28;20025;-89
2022/05/13 09:58:37;;;;;;;6.95;3.40;;;;;;;29.99;33.61;100840.56;5040136;28;20026;-85
2022/05/13 10:01:10;;;;;;;13.32;4.05;;;;;;;30.13;33.46;100838.81;5054759;28;20038;-87
2022/05/13 10:03:37;;;;;;;13.02;3.92;;;;;;;30.66;32.66;100842.50;5021413;28;20068;-85
2022/05/13 10:06:08;;;;;;;8.68;3.55;;;;;;;31.40;31.56;100823.97;5042533;28;20087;-89
2022/05/13 10:08:47;;;;;;;10.98;3.65;;;;;;;31.14;32.48;100829.75;5023381;28;20036;-87
2022/05/13 10:14:02;;;;;;;14.90;4.38;;;;;;;29.73;32.66;100819.91;5025314;28;20059;-88
2022/05/13 10:16:44;;;;;;;11.02;3.28;;;;;;;29.21;34.36;100810.25;5003968;28;20061;-84
2022/05/13 10:19:28;;;;;;;10.73;3.30;;;;;;;29.53;32.52;100818.06;5025141;28;20040;-84
2022/05/13 10:22:18;;;;;;;14.40;3.33;;;;;;;28.66;33.26;100807.66;5041974;28;20034;-87
2022/05/13 10:25:04;;;;;;;7.35;2.30;;;;;;;28.64;33.64;100809.78;5021973;28;20038;-84
2022/05/13 10:27:32;;;;;;;9.02;2.70;;;;;;;28.68;32.42;100810.91;5040170;28;20435;-85
2022/05/13 10:30:11;;;;;;;9.35;2.53;;;;;;;28.94;32.23;100815.25;5043591;28;20491;-83
2022/05/13 10:33:06;;;;;;;10.18;2.90;;;;;;;30.15;31.63;100809.28;5058042;28;20033;-86
2022/05/13 10:36:10;;;;;;;9.18;2.40;;;;;;;30.68;30.08;100817.63;4949923;28;20066;-83
2022/05/13 10:38:45;;;;;;;6.75;2.30;;;;;;;31.12;29.18;100810.03;4957553;29;20039;-88
2022/05/13 10:41:28;;;;;;;13.13;2.40;;;;;;;31.56;28.66;100806.25;4954326;28;20035;-83
2022/05/13 10:44:04;;;;;;;15.30;2.53;;;;;;;30.43;28.51;100804.16;4951318;29;20032;-84
2022/05/13 10:46:48;;;;;;;14.18;2.20;;;;;;;31.12;27.69;100799.09;5005216;28;20199;-85
2022/05/13 10:49:14;;;;;;;10.23;2.60;;;;;;;31.62;27.66;100796.88;5043208;28;20030;-86
2022/05/13 10:51:55;;;;;;;6.90;2.30;;;;;;;30.85;28.25;100801.56;5035756;28;20117;-85
2022/05/13 10:54:35;;;;;;;6.70;2.20;;;;;;;30.26;29.60;100791.66;5052577;28;20508;-86
2022/05/13 10:57:26;;;;;;;8.57;2.10;;;;;;;30.93;28.20;100798.19;5049340;28;20039;-90
2022/05/13 10:59:51;;;;;;;7.78;2.05;;;;;;;31.33;27.53;100776.94;5065922;28;20385;-83
2022/05/13 11:02:17;;;;;;;11.63;2.42;;;;;;;30.91;27.25;100783.97;5047681;28;20065;-84
2022/05/13 11:05:06;;;;;;;8.77;2.67;;;;;;;30.59;28.20;100781.03;5045090;28;20048;-86
2022/05/13 11:07:39;;;;;;;11.93;2.42;;;;;;;31.02;28.14;100769.13;5043992;28;20029;-87
2022/05/13 11:10:17;;;;;;;14.40;2.17;;;;;;;31.56;26.91;100768.72;5027780;28;20033;-86
2022/05/13 11:13:01;;;;;;;10.45;2.30;;;;;;;31.41;27.50;100762.59;5036215;28;20124;-85
2022/05/13 11:15:35;;;;;;;10.70;3.35;;;;;;;30.85;28.56;100767.91;5034682;23;20064;-87
2022/05/13 11:18:04;;;;;;;10.65;2.38;;;;;;;31.30;28.72;100769.31;5018915;28;20061;-88
2022/05/13 11:20:29;;;;;;;12.82;2.88;;;;;;;31.43;28.70;100768.59;5018471;28;20037;-87
2022/05/13 11:23:32;;;;;;;10.10;2.35;;;;;;;30.89;28.87;100758.00;5037365;28;20034;-90
2022/05/13 11:26:28;;;;;;;7.47;2.95;;;;;;;30.62;29.52;100756.66;5028535;28;20081;-92
2022/05/13 11:32:09;;;;;;;7.50;2.60;;;;;;;29.75;31.54;100743.91;5182333;23;20080;-89
2022/05/13 11:34:59;;;;;;;12.80;2.45;;;;;;;29.93;32.11;100743.25;5077195;28;20052;-91
2022/05/13 11:37:29;;;;;;;14.60;3.20;;;;;;;29.72;32.73;100741.75;5056592;28;20025;-89
2022/05/13 11:40:15;;;;;;;8.70;2.50;;;;;;;29.31;31.61;100740.34;5052580;28;20104;-89
2022/05/13 11:43:18;;;;;;;13.23;3.20;;;;;;;28.97;32.99;100735.53;5022898;28;20029;-88
2022/05/13 11:46:07;;;;;;;;;;;;;;;29.14;33.52;100729.75;5040807;28;20079;-85
2022/05/13 11:48:45;;;;;;;13.15;2.95;;;;;;;28.93;33.16;100715.38;4939593;28;19932;-84
2022/05/13 11:51:16;;;;;;;15.80;2.60;;;;;;;28.64;32.97;100722.50;4946487;28;20086;-83
2022/05/13 11:53:52;;;;;;;12.30;3.00;;;;;;;28.78;33.46;100718.16;4946223;29;20056;-91
2022/05/13 11:56:46;;;;;;;9.85;2.53;;;;;;;28.28;34.16;100712.75;4972369;28;20046;-90
2022/05/13 11:59:30;;;;;;;10.60;1.88;;;;;;;28.25;34.54;100711.41;4990398;28;20049;-92
2022/05/13 12:02:14;;;;;;;14.57;2.45;;;;;;;28.28;33.92;100710.03;5076500;28;20055;-91
2022/05/13 12:05:14;;;;;;;8.57;2.58;;;;;;;27.97;34.69;100701.88;5061422;28;20060;-90
2022/05/13 12:07:51;;;;;;;13.10;3.22;;;;;;;27.62;35.50;100688.19;5079337;28;20029;-91
2022/05/13 12:10:26;;;;;;;10.70;3.08;;;;;;;27.11;36.80;100692.69;5061522;28;20017;-87
2022/05/13 12:13:30;;;;;;;10.82;2.78;;;;;;;27.17;36.96;100691.63;5073716;28;20130;-89
2022/05/13 12:16:33;;;;;;;11.90;2.78;;;;;;;27.19;37.14;100684.00;5008287;28;20045;-92
2022/05/13 12:19:19;;;;;;;6.55;2.97;;;;;;;27.52;35.94;100686.28;5021028;28;20029;-89
2022/05/13 12:22:05;;;;;;;6.13;2.50;;;;;;;27.48;36.42;100678.91;5040959;28;20029;-91
2022/05/13 12:24:55;;;;;;;13.82;3.30;;;;;;;27.43;36.28;100676.97;5041549;28;20063;-93
2022/05/13 12:28:02;;;;;;;10.25;2.72;;;;;;;27.20;36.35;100672.84;5005049;28;20103;-91
2022/05/13 12:30:41;;;;;;;14.35;3.00;;;;;;;27.46;36.69;100664.75;5046116;28;20071;-88